Time;durP1;ratioP1;P1;durP2;ratioP2;P2;SDS_P1;SDS_P2;PMS_P1;PMS_P2;Temp;Humidity;BMP_temperature;BMP_pressure;BME280_temperature;BME280_humidity;BME280_pressure;Samples;Min_cycle;Max_cycle;Signal;HPM_P1;HPM_P2
2024/02/23 00:01:36;;;;;;;2.63;0.38;;;8.80;99.90;;;;;;5054675;28;20386;-79
2024/02/23 00:04:02;;;;;;;1.17;0.30;;;8.80;99.90;;;;;;5053205;28;20152;-79
2024/02/23 00:06:28;;;;;;;2.33;0.30;;;8.70;99.90;;;;;;5054011;28;20032;-80
2024/02/23 00:08:54;;;;;;;0.98;0.38;;;8.70;99.90;;;;;;5053643;28;20079;-80
2024/02/23 00:11:23;;;;;;;4.75;0.38;;;8.70;99.90;;;;;;5053187;28;20035;-80
2024/02/23 00:13:49;;;;;;;1.23;0.40;;;8.70;99.90;;;;;;5053611;28;20025;-80
2024/02/23 00:16:15;;;;;;;1.52;0.38;;;8.70;99.90;;;;;;5053097;28;20029;-80
2024/02/23 00:18:40;;;;;;;2.95;0.60;;;8.70;99.90;;;;;;5054434;28;20033;-80
2024/02/23 00:21:06;;;;;;;0.90;0.30;;;8.70;99.90;;;;;;5052639;28;20475;-79
2024/02/23 00:23:32;;;;;;;2.08;0.30;;;8.70;99.90;;;;;;5053415;28;20027;-79
2024/02/23 00:25:57;;;;;;;3.03;1.23;;;8.70;99.90;;;;;;5054073;28;20074;-75
2024/02/23 00:28:23;;;;;;;3.42;0.93;;;8.60;99.90;;;;;;5053516;28;20120;-80
2024/02/23 00:30:48;;;;;;;2.10;0.32;;;8.60;99.90;;;;;;5054511;28;20450;-79
2024/02/23 00:33:14;;;;;;;2.70;0.30;;;8.50;99.90;;;;;;5053574;28;20087;-80
2024/02/23 00:35:40;;;;;;;1.63;0.40;;;8.50;99.90;;;;;;5054205;28;20501;-80
2024/02/23 00:38:07;;;;;;;1.60;0.43;;;8.50;99.90;;;;;;5053451;28;20037;-79
2024/02/23 00:40:33;;;;;;;3.00;0.43;;;8.40;99.90;;;;;;5052897;28;20052;-79
2024/02/23 00:43:00;;;;;;;0.80;0.20;;;8.40;99.90;;;;;;5050992;28;20190;-76
2024/02/23 00:45:25;;;;;;;4.55;0.50;;;8.40;99.90;;;;;;5053942;28;20028;-78
2024/02/23 00:47:51;;;;;;;3.22;0.40;;;8.40;99.90;;;;;;5053751;28;20029;-78
2024/02/23 00:50:17;;;;;;;3.47;0.50;;;8.40;99.90;;;;;;5053235;28;20033;-78
2024/02/23 00:52:43;;;;;;;1.42;0.40;;;8.30;99.90;;;;;;5052683;28;20029;-79
2024/02/23 00:55:08;;;;;;;2.25;0.52;;;8.30;99.90;;;;;;5051824;28;20035;-78
2024/02/23 00:57:35;;;;;;;3.65;0.80;;;8.30;99.90;;;;;;5052216;28;20108;-78
2024/02/23 01:00:01;;;;;;;1.83;0.50;;;8.30;99.90;;;;;;5051914;28;20025;-78
2024/02/23 01:02:26;;;;;;;1.40;0.30;;;8.30;99.90;;;;;;5052547;28;20029;-79
2024/02/23 01:04:56;;;;;;;4.07;0.50;;;8.30;99.90;;;;;;5053547;28;20021;-79
2024/02/23 01:07:22;;;;;;;2.08;0.40;;;8.30;99.90;;;;;;5051766;28;20406;-79
2024/02/23 01:09:48;;;;;;;5.32;0.85;;;8.30;99.90;;;;;;5052740;28;20543;-79
2024/02/23 01:12:13;;;;;;;3.90;0.70;;;8.30;99.90;;;;;;5051721;28;20032;-81
2024/02/23 01:14:39;;;;;;;5.20;0.98;;;8.20;99.90;;;;;;5052656;28;20477;-81
2024/02/23 01:17:05;;;;;;;3.33;0.93;;;8.30;99.90;;;;;;5052938;28;20383;-79
2024/02/23 01:19:30;;;;;;;1.67;0.40;;;8.20;99.90;;;;;;5052506;28;20033;-82
2024/02/23 01:21:59;;;;;;;1.48;0.40;;;8.20;99.90;;;;;;5052391;28;20044;-80
2024/02/23 01:24:27;;;;;;;2.08;0.60;;;8.20;99.90;;;;;;5051932;28;20032;-80
2024/02/23 01:26:55;;;;;;;4.05;0.50;;;8.20;99.90;;;;;;5052479;28;20044;-80
2024/02/23 01:29:22;;;;;;;3.78;0.40;;;8.10;99.90;;;;;;5051774;28;20127;-80
2024/02/23 01:31:48;;;;;;;2.05;0.60;;;8.10;99.90;;;;;;5052381;28;20032;-80
2024/02/23 01:34:13;;;;;;;0.90;0.40;;;8.10;99.90;;;;;;5051759;28;20025;-80
2024/02/23 01:36:39;;;;;;;3.15;0.30;;;8.10;99.90;;;;;;5053490;28;20032;-80
2024/02/23 01:39:05;;;;;;;2.90;0.45;;;8.10;99.90;;;;;;5052779;28;20037;-79
2024/02/23 01:41:30;;;;;;;4.07;0.60;;;8.10;99.90;;;;;;5053224;28;20025;-80
2024/02/23 01:43:56;;;;;;;4.13;0.50;;;8.10;99.90;;;;;;5051984;28;20582;-80
2024/02/23 01:46:21;;;;;;;2.47;0.35;;;8.00;99.90;;;;;;5051632;28;20261;-80
2024/02/23 01:48:47;;;;;;;1.10;0.47;;;8.10;99.90;;;;;;5052050;28;20033;-79
2024/02/23 01:51:14;;;;;;;3.75;0.40;;;8.00;99.90;;;;;;5052479;28;20036;-79
2024/02/23 01:53:39;;;;;;;1.58;0.40;;;8.10;99.90;;;;;;5055691;28;20462;-79
2024/02/23 01:56:06;;;;;;;1.02;0.30;;;8.00;99.90;;;;;;5055536;28;20032;-79
2024/02/23 01:58:35;;;;;;;2.22;0.40;;;8.00;99.90;;;;;;5056040;28;20037;-80
2024/02/23 02:01:00;;;;;;;3.05;0.85;;;8.00;99.90;;;;;;5055993;28;20501;-79
2024/02/23 02:03:26;;;;;;;1.90;0.45;;;8.00;99.90;;;;;;5056745;28;20052;-79
2024/02/23 02:05:53;;;;;;;4.80;0.47;;;8.00;99.90;;;;;;5057081;28;20029;-79
2024/02/23 02:08:20;;;;;;;2.80;0.55;;;8.00;99.90;;;;;;5055237;28;20043;-79
2024/02/23 02:10:47;;;;;;;2.58;0.50;;;8.00;99.90;;;;;;5055718;28;20112;-79
2024/02/23 02:13:12;;;;;;;3.10;0.40;;;8.00;99.90;;;;;;5055049;28;20495;-80
2024/02/23 02:15:38;;;;;;;1.45;0.50;;;8.00;99.90;;;;;;5055593;28;20032;-79
2024/02/23 02:18:04;;;;;;;2.40;0.30;;;8.00;99.90;;;;;;5056209;28;20064;-76
2024/02/23 02:20:33;;;;;;;3.33;0.40;;;8.00;99.90;;;;;;5055513;28;20104;-78
2024/02/23 02:22:59;;;;;;;4.78;0.50;;;8.00;99.90;;;;;;5055482;28;20373;-78
2024/02/23 02:25:24;;;;;;;2.30;0.30;;;8.00;99.90;;;;;;5056114;28;20025;-78
2024/02/23 02:27:50;;;;;;;3.50;0.47;;;8.00;99.90;;;;;;5055635;28;20523;-79
2024/02/23 02:30:16;;;;;;;1.20;0.40;;;8.00;99.90;;;;;;5056074;28;20017;-79
2024/02/23 02:32:41;;;;;;;1.05;0.30;;;8.00;99.90;;;;;;5056720;28;20029;-79
2024/02/23 02:35:07;;;;;;;3.08;0.50;;;8.00;99.90;;;;;;5055022;28;20033;-79
2024/02/23 02:37:33;;;;;;;4.28;0.32;;;8.00;99.90;;;;;;5056426;28;20085;-79
2024/02/23 02:39:59;;;;;;;1.85;0.38;;;8.00;99.90;;;;;;5055452;28;20063;-79
2024/02/23 02:42:24;;;;;;;1.60;0.40;;;7.90;99.90;;;;;;5055131;28;20402;-80
2024/02/23 02:44:50;;;;;;;2.20;0.40;;;7.90;99.90;;;;;;5056643;28;20049;-80
2024/02/23 02:47:15;;;;;;;0.57;0.30;;;7.90;99.90;;;;;;5054861;28;20203;-79
2024/02/23 02:49:41;;;;;;;1.40;0.20;;;7.90;99.90;;;;;;5055417;28;20033;-80
2024/02/23 02:52:08;;;;;;;2.47;0.30;;;7.80;99.90;;;;;;5055595;28;20029;-78
2024/02/23 02:54:34;;;;;;;1.38;0.30;;;7.90;99.90;;;;;;5055150;28;20033;-80
2024/02/23 02:56:59;;;;;;;2.50;0.50;;;7.80;99.90;;;;;;5055115;28;20029;-80
2024/02/23 02:59:25;;;;;;;0.98;0.40;;;7.80;99.90;;;;;;5055558;28;20068;-80
2024/02/23 03:01:50;;;;;;;2.63;0.40;;;7.80;99.90;;;;;;5055194;28;20550;-79
2024/02/23 03:04:16;;;;;;;2.60;0.63;;;7.80;99.90;;;;;;5053771;28;20029;-79
2024/02/23 03:06:42;;;;;;;1.38;0.32;;;7.80;99.90;;;;;;5054964;28;20123;-79
2024/02/23 03:09:07;;;;;;;3.88;0.28;;;7.80;99.90;;;;;;5054524;28;20466;-77
2024/02/23 03:11:33;;;;;;;3.03;0.50;;;7.80;99.90;;;;;;5056106;28;20037;-79
2024/02/23 03:13:59;;;;;;;0.98;0.30;;;7.70;99.90;;;;;;5055979;28;20033;-79
2024/02/23 03:16:28;;;;;;;0.82;0.30;;;7.70;99.90;;;;;;5054316;28;20032;-80
2024/02/23 03:18:54;;;;;;;2.28;0.30;;;7.60;99.90;;;;;;5054610;28;20037;-80
2024/02/23 03:21:20;;;;;;;2.20;0.30;;;7.60;99.90;;;;;;5054216;28;20035;-79
2024/02/23 03:23:45;;;;;;;1.30;0.40;;;7.50;99.90;;;;;;5054580;28;20082;-79
2024/02/23 03:26:11;;;;;;;1.92;0.40;;;7.50;99.90;;;;;;5053880;28;20025;-79
2024/02/23 03:28:36;;;;;;;0.85;0.30;;;7.50;99.90;;;;;;5054558;28;20538;-80
2024/02/23 03:31:02;;;;;;;2.50;0.45;;;7.50;99.90;;;;;;5054515;28;20071;-80
2024/02/23 03:33:28;;;;;;;3.22;0.30;;;7.50;99.90;;;;;;5053890;28;20224;-79
2024/02/23 03:35:53;;;;;;;2.50;0.40;;;7.50;99.90;;;;;;5054475;28;20037;-80
2024/02/23 03:38:19;;;;;;;1.48;0.40;;;7.60;99.90;;;;;;5053687;28;20032;-79
2024/02/23 03:40:45;;;;;;;1.15;0.40;;;7.60;99.90;;;;;;5054788;28;20025;-79
2024/02/23 03:43:10;;;;;;;1.95;0.60;;;7.60;99.90;;;;;;5053586;28;20071;-78
2024/02/23 03:45:36;;;;;;;3.05;0.50;;;7.60;99.90;;;;;;5055392;28;20463;-80
2024/02/23 03:48:03;;;;;;;0.95;0.40;;;7.60;99.90;;;;;;5054170;28;20021;-81
2024/02/23 03:50:29;;;;;;;2.72;0.40;;;7.60;99.90;;;;;;5054927;28;20577;-81
2024/02/23 03:52:55;;;;;;;2.10;0.40;;;7.60;99.90;;;;;;5054261;28;20082;-80
2024/02/23 03:55:21;;;;;;;2.05;0.43;;;7.60;99.90;;;;;;5053918;28;20025;-80
2024/02/23 03:57:47;;;;;;;0.65;0.30;;;7.60;99.90;;;;;;5055394;28;20025;-81
2024/02/23 04:00:14;;;;;;;2.13;0.32;;;7.60;99.90;;;;;;5054062;28;20025;-80
2024/02/23 04:02:39;;;;;;;1.40;0.38;;;7.50;99.90;;;;;;5054550;28;20425;-80
2024/02/23 04:05:06;;;;;;;1.73;0.22;;;7.60;99.90;;;;;;5055145;28;20025;-80
2024/02/23 04:07:31;;;;;;;1.17;0.30;;;7.50;99.90;;;;;;5053223;28;20044;-79
2024/02/23 04:09:57;;;;;;;2.60;0.40;;;7.50;99.90;;;;;;5054841;28;20473;-79
2024/02/23 04:12:23;;;;;;;1.25;0.40;;;7.50;99.90;;;;;;5053199;28;20127;-78
2024/02/23 04:14:48;;;;;;;2.15;0.30;;;7.50;99.90;;;;;;5053770;28;20029;-80
2024/02/23 04:17:14;;;;;;;1.08;0.40;;;7.50;99.90;;;;;;5053003;28;20056;-79
2024/02/23 04:19:43;;;;;;;2.22;0.70;;;7.40;99.90;;;;;;5053454;28;20033;-79
2024/02/23 04:22:09;;;;;;;1.88;0.32;;;7.40;99.90;;;;;;5053878;28;20021;-79
2024/02/23 04:24:39;;;;;;;2.53;0.35;;;7.40;99.90;;;;;;5053120;28;20110;-80
2024/02/23 04:27:05;;;;;;;3.10;0.40;;;7.40;99.90;;;;;;5054571;28;20040;-80
2024/02/23 04:29:34;;;;;;;1.20;0.35;;;7.40;99.90;;;;;;5054131;28;20226;-80
2024/02/23 04:32:01;;;;;;;0.75;0.30;;;7.40;99.90;;;;;;5054529;28;20057;-80
2024/02/23 04:34:27;;;;;;;3.95;0.45;;;7.40;99.90;;;;;;5052652;28;20097;-79
2024/02/23 04:36:53;;;;;;;1.13;0.30;;;7.30;99.90;;;;;;5053379;28;20024;-79
2024/02/23 04:39:18;;;;;;;2.30;0.30;;;7.30;99.90;;;;;;5052546;28;20393;-79
2024/02/23 04:41:44;;;;;;;2.03;0.40;;;7.30;99.90;;;;;;5052805;28;20029;-79
2024/02/23 04:44:09;;;;;;;2.28;0.30;;;7.30;99.90;;;;;;5053100;28;20059;-79
2024/02/23 04:46:35;;;;;;;1.80;0.50;;;7.30;99.90;;;;;;5053744;28;20029;-79
2024/02/23 04:49:01;;;;;;;3.72;0.68;;;7.30;99.90;;;;;;5052959;28;20409;-79
2024/02/23 04:51:27;;;;;;;1.52;0.20;;;7.30;99.90;;;;;;5052362;28;20067;-79
2024/02/23 04:53:52;;;;;;;2.58;0.45;;;7.30;99.90;;;;;;5053988;28;20025;-79
2024/02/23 04:56:18;;;;;;;0.98;0.45;;;7.30;99.90;;;;;;5051944;28;20393;-79
2024/02/23 04:58:44;;;;;;;3.33;0.40;;;7.40;99.90;;;;;;5053832;28;20406;-79
2024/02/23 05:01:10;;;;;;;5.13;0.40;;;7.40;99.90;;;;;;5054004;28;20060;-79
2024/02/23 05:03:36;;;;;;;1.42;0.30;;;7.30;99.90;;;;;;5053373;28;20434;-79
2024/02/23 05:06:05;;;;;;;1.17;0.40;;;7.40;99.90;;;;;;5052619;28;20033;-79
2024/02/23 05:08:31;;;;;;;1.80;0.28;;;7.40;99.90;;;;;;5051958;28;20036;-79
2024/02/23 05:10:57;;;;;;;2.50;0.47;;;7.30;99.90;;;;;;5052803;28;20025;-79
2024/02/23 05:13:23;;;;;;;4.03;0.35;;;7.30;99.90;;;;;;5051621;28;20504;-78
2024/02/23 05:15:49;;;;;;;2.30;0.40;;;7.30;99.90;;;;;;5053416;28;20043;-78
2024/02/23 05:18:15;;;;;;;1.13;0.25;;;7.30;99.90;;;;;;5051698;28;20033;-77
2024/02/23 05:20:41;;;;;;;4.70;0.47;;;7.30;99.90;;;;;;5052522;28;20022;-79
2024/02/23 05:23:06;;;;;;;4.13;0.43;;;7.20;99.90;;;;;;5051689;28;20025;-79
2024/02/23 05:25:32;;;;;;;1.75;0.82;;;7.20;99.90;;;;;;5051371;28;20044;-79
2024/02/23 05:27:57;;;;;;;5.00;1.58;;;7.20;99.90;;;;;;5051797;28;20029;-79
2024/02/23 05:30:23;;;;;;;1.83;0.38;;;7.20;99.90;;;;;;5052841;28;20494;-79
2024/02/23 05:32:49;;;;;;;2.13;0.50;;;7.10;99.90;;;;;;5052574;28;20021;-78
2024/02/23 05:35:14;;;;;;;3.10;0.30;;;7.10;99.90;;;;;;5051966;28;20028;-79
2024/02/23 05:37:41;;;;;;;3.72;0.60;;;7.10;99.90;;;;;;5051863;28;20021;-79
2024/02/23 05:40:10;;;;;;;1.85;0.40;;;7.00;99.90;;;;;;5053275;28;20425;-79
2024/02/23 05:42:39;;;;;;;1.92;0.30;;;7.00;99.90;;;;;;5052565;28;20259;-79
2024/02/23 05:45:08;;;;;;;1.70;0.30;;;7.00;99.90;;;;;;5052335;28;20029;-79
2024/02/23 05:47:38;;;;;;;2.78;0.28;;;7.00;99.90;;;;;;5052732;28;20123;-79
2024/02/23 05:50:05;;;;;;;4.32;0.50;;;7.00;99.90;;;;;;5053300;28;20021;-79
2024/02/23 05:52:32;;;;;;;1.45;0.30;;;7.00;99.90;;;;;;5051720;28;20073;-79
2024/02/23 05:54:59;;;;;;;2.67;0.30;;;7.00;99.90;;;;;;5052328;28;20037;-78
2024/02/23 05:57:26;;;;;;;1.55;0.30;;;6.90;99.90;;;;;;5052442;28;20553;-78
2024/02/23 05:59:52;;;;;;;2.47;0.40;;;6.90;99.90;;;;;;5051959;28;20039;-81
2024/02/23 06:02:17;;;;;;;4.60;0.65;;;6.90;99.90;;;;;;5051670;28;20032;-77
2024/02/23 06:04:43;;;;;;;2.50;0.57;;;6.80;99.90;;;;;;5052037;28;20486;-79
2024/02/23 06:07:08;;;;;;;3.55;0.40;;;6.80;99.90;;;;;;5052131;28;20025;-80
2024/02/23 06:09:34;;;;;;;2.72;0.60;;;6.80;99.90;;;;;;5051179;28;20036;-80
2024/02/23 06:12:00;;;;;;;1.85;0.32;;;6.80;99.90;;;;;;5052722;28;20072;-79
2024/02/23 06:14:25;;;;;;;3.00;0.40;;;6.80;99.90;;;;;;5068576;28;20036;-79
2024/02/23 06:16:51;;;;;;;1.85;0.40;;;6.70;99.90;;;;;;5069076;28;20025;-78
2024/02/23 06:19:16;;;;;;;1.85;0.43;;;6.60;99.90;;;;;;5051783;28;20091;-79
2024/02/23 06:21:42;;;;;;;2.67;0.68;;;6.60;99.90;;;;;;5067950;28;20421;-78
2024/02/23 06:24:08;;;;;;;1.95;0.30;;;6.70;99.90;;;;;;5068566;28;20025;-79
2024/02/23 06:26:34;;;;;;;1.67;0.45;;;6.60;99.90;;;;;;5051653;28;20025;-79
2024/02/23 06:29:00;;;;;;;3.05;0.47;;;6.70;99.90;;;;;;5051377;28;20530;-78
2024/02/23 06:31:26;;;;;;;2.30;0.50;;;6.70;99.90;;;;;;5051059;28;20108;-78
2024/02/23 06:33:51;;;;;;;4.13;0.50;;;6.80;99.90;;;;;;5052770;28;20473;-79
2024/02/23 06:36:21;;;;;;;0.77;0.50;;;6.80;99.90;;;;;;5052456;28;20103;-78
2024/02/23 06:38:47;;;;;;;5.90;1.10;;;6.80;99.90;;;;;;5051814;28;20437;-77
2024/02/23 06:41:13;;;;;;;3.03;0.50;;;6.80;99.90;;;;;;5058887;28;20032;-78
2024/02/23 06:43:38;;;;;;;1.08;0.40;;;6.80;99.90;;;;;;5055166;28;20410;-76
2024/02/23 06:46:07;;;;;;;3.60;1.27;;;6.80;99.90;;;;;;5054646;28;20144;-76
2024/02/23 06:48:33;;;;;;;2.97;0.30;;;6.90;99.90;;;;;;5053190;28;20067;-76
2024/02/23 06:50:58;;;;;;;1.92;0.40;;;6.90;99.90;;;;;;5053889;28;20114;-76
2024/02/23 06:53:24;;;;;;;1.85;0.50;;;6.90;99.90;;;;;;5053325;28;20017;-80
2024/02/23 06:55:49;;;;;;;4.00;0.90;;;6.90;99.90;;;;;;5054601;28;20028;-77
2024/02/23 06:58:16;;;;;;;5.82;0.77;;;6.90;99.90;;;;;;5054377;28;20055;-76
2024/02/23 07:00:42;;;;;;;0.93;0.25;;;6.90;99.90;;;;;;5053611;28;20120;-77
2024/02/23 07:03:08;;;;;;;2.33;0.55;;;6.80;99.90;;;;;;5055641;28;20056;-77
2024/02/23 07:05:35;;;;;;;3.60;1.02;;;6.80;99.90;;;;;;5053911;28;20119;-77
2024/02/23 07:08:04;;;;;;;3.43;0.60;;;6.80;99.90;;;;;;5054194;28;20454;-77
2024/02/23 07:10:29;;;;;;;2.65;0.77;;;6.80;99.90;;;;;;5053705;28;20429;-77
2024/02/23 07:12:56;;;;;;;2.65;0.43;;;6.80;99.90;;;;;;5054814;28;20029;-77
2024/02/23 07:15:22;;;;;;;2.05;0.50;;;6.70;99.90;;;;;;5053431;28;20060;-75
2024/02/23 07:17:48;;;;;;;2.33;0.60;;;6.70;99.90;;;;;;5053723;28;20065;-77
2024/02/23 07:20:14;;;;;;;1.98;0.52;;;6.80;99.90;;;;;;5053934;28;20033;-77
2024/02/23 07:22:42;;;;;;;3.65;0.63;;;6.80;99.90;;;;;;5053378;28;20533;-77
2024/02/23 07:25:08;;;;;;;3.20;0.40;;;6.80;99.90;;;;;;5053908;28;20025;-77
2024/02/23 07:27:34;;;;;;;1.00;0.50;;;6.80;99.90;;;;;;5053380;28;20033;-76
2024/02/23 07:29:59;;;;;;;1.73;0.50;;;6.80;99.90;;;;;;5053780;28;20029;-77
2024/02/23 07:32:25;;;;;;;2.83;0.32;;;6.80;99.90;;;;;;5052831;28;20057;-76
2024/02/23 07:34:50;;;;;;;1.90;0.38;;;6.80;99.90;;;;;;5053586;28;20025;-76
2024/02/23 07:37:16;;;;;;;1.27;0.30;;;6.80;99.90;;;;;;5053795;28;20513;-77
2024/02/23 07:39:42;;;;;;;2.20;0.70;;;6.80;99.90;;;;;;5053246;28;20037;-76
2024/02/23 07:42:10;;;;;;;7.57;0.52;;;6.80;99.90;;;;;;5053762;28;20033;-77
2024/02/23 07:44:35;;;;;;;0.60;0.30;;;6.80;99.90;;;;;;5065622;28;20098;-77
2024/02/23 07:47:01;;;;;;;4.00;0.40;;;6.80;99.90;;;;;;5054675;28;20025;-77
2024/02/23 07:49:28;;;;;;;0.60;0.30;;;6.90;99.90;;;;;;5052845;28;20033;-77
2024/02/23 07:51:54;;;;;;;3.15;0.40;;;6.90;99.90;;;;;;5054757;28;20021;-77
2024/02/23 07:54:20;;;;;;;1.52;0.38;;;7.00;99.90;;;;;;5055132;28;20059;-77
2024/02/23 07:56:45;;;;;;;3.65;0.40;;;7.00;99.90;;;;;;5052809;28;20409;-77
2024/02/23 07:59:11;;;;;;;2.10;0.40;;;7.10;99.90;;;;;;5053124;28;20033;-77
2024/02/23 08:01:37;;;;;;;1.67;0.30;;;7.10;99.90;;;;;;5052554;28;20227;-77
2024/02/23 08:04:03;;;;;;;1.05;0.40;;;7.10;99.90;;;;;;5053234;28;20028;-77
2024/02/23 08:06:28;;;;;;;1.15;0.55;;;7.20;99.90;;;;;;5052311;28;20027;-77
2024/02/23 08:08:55;;;;;;;0.25;0.20;;;7.30;99.90;;;;;;5054095;28;20025;-77
2024/02/23 08:11:20;;;;;;;2.83;0.50;;;7.40;99.90;;;;;;5052990;28;20373;-77
2024/02/23 08:13:46;;;;;;;0.88;0.40;;;7.50;99.90;;;;;;5052155;28;20025;-77
2024/02/23 08:16:11;;;;;;;1.40;0.47;;;7.50;99.90;;;;;;5052818;28;20075;-77
2024/02/23 08:18:37;;;;;;;1.90;0.40;;;7.60;99.90;;;;;;5052064;28;20071;-77
2024/02/23 08:21:05;;;;;;;3.25;0.52;;;7.70;99.90;;;;;;5052876;28;20029;-77
2024/02/23 08:23:31;;;;;;;1.35;0.50;;;7.80;99.90;;;;;;5053620;28;20331;-77
2024/02/23 08:25:58;;;;;;;0.75;0.35;;;7.90;99.90;;;;;;5052899;28;20152;-77
2024/02/23 08:28:24;;;;;;;1.90;0.63;;;7.90;99.90;;;;;;5052789;28;20025;-78
2024/02/23 08:30:49;;;;;;;1.25;0.40;;;8.00;99.90;;;;;;5051728;28;20059;-77
2024/02/23 08:33:15;;;;;;;4.20;0.47;;;8.00;99.90;;;;;;5053841;28;20017;-77
2024/02/23 08:35:41;;;;;;;1.25;0.60;;;8.10;99.90;;;;;;5053115;28;20099;-77
2024/02/23 08:38:07;;;;;;;2.13;0.60;;;8.10;99.90;;;;;;5052457;28;20446;-77
2024/02/23 08:40:32;;;;;;;4.68;0.50;;;8.10;99.90;;;;;;5052232;28;20017;-78
2024/02/23 08:42:58;;;;;;;2.22;0.50;;;8.20;99.90;;;;;;5053881;28;20024;-77
2024/02/23 08:45:23;;;;;;;3.00;0.55;;;8.20;99.90;;;;;;5053790;28;20076;-78
2024/02/23 08:47:49;;;;;;;4.32;0.55;;;8.20;99.90;;;;;;5052043;28;20024;-77
2024/02/23 08:50:15;;;;;;;2.38;0.40;;;8.20;99.90;;;;;;5052572;28;20070;-77
2024/02/23 08:52:40;;;;;;;3.60;0.60;;;8.30;99.90;;;;;;5053045;28;20353;-77
2024/02/23 08:55:07;;;;;;;3.60;0.50;;;8.40;99.90;;;;;;5052859;28;20437;-77
2024/02/23 08:57:32;;;;;;;1.25;0.50;;;8.50;99.90;;;;;;5051708;28;20032;-76
2024/02/23 08:59:58;;;;;;;2.83;0.50;;;8.40;99.90;;;;;;5051816;28;20132;-77
2024/02/23 09:02:24;;;;;;;1.83;0.60;;;8.40;99.90;;;;;;5050777;28;20029;-77
2024/02/23 09:04:50;;;;;;;1.00;0.50;;;8.50;99.90;;;;;;5051952;28;20036;-77
2024/02/23 09:07:15;;;;;;;6.63;0.43;;;8.50;99.90;;;;;;5051528;28;20025;-77
2024/02/23 09:09:41;;;;;;;1.85;0.38;;;8.50;99.90;;;;;;5052355;28;20029;-77
2024/02/23 09:12:10;;;;;;;3.38;0.57;;;8.50;99.90;;;;;;5051800;28;20367;-77
2024/02/23 09:14:37;;;;;;;1.40;0.60;;;8.60;99.90;;;;;;5051348;28;20367;-77
2024/02/23 09:17:04;;;;;;;3.42;0.82;;;8.70;99.90;;;;;;5051730;28;20454;-77
2024/02/23 09:19:30;;;;;;;1.88;0.35;;;8.70;99.90;;;;;;5051032;28;20037;-76
2024/02/23 09:21:55;;;;;;;2.55;0.40;;;8.70;99.90;;;;;;5051975;28;20031;-77
2024/02/23 09:24:21;;;;;;;3.35;0.43;;;8.60;99.90;;;;;;5053021;28;20067;-77
2024/02/23 09:26:47;;;;;;;3.38;0.70;;;8.60;99.90;;;;;;5052278;28;20620;-77
2024/02/23 09:29:13;;;;;;;1.90;0.50;;;8.60;99.90;;;;;;5051581;28;20048;-77
2024/02/23 09:31:39;;;;;;;4.30;1.27;;;8.70;99.90;;;;;;5052265;28;20458;-77
2024/02/23 09:34:04;;;;;;;2.83;0.60;;;8.60;99.90;;;;;;5051707;28;20021;-77
2024/02/23 09:36:30;;;;;;;3.53;0.47;;;8.70;99.90;;;;;;5052207;28;20120;-75
2024/02/23 09:38:56;;;;;;;3.45;0.60;;;8.70;99.90;;;;;;5052826;28;20040;-77
2024/02/23 09:41:23;;;;;;;4.18;0.50;;;8.70;99.90;;;;;;5052353;28;20029;-77
2024/02/23 09:43:49;;;;;;;6.78;1.15;;;8.70;99.90;;;;;;5050958;28;20072;-77
2024/02/23 09:46:16;;;;;;;3.22;0.50;;;8.70;99.90;;;;;;5051348;28;20045;-77
2024/02/23 09:48:44;;;;;;;3.40;0.60;;;8.60;99.90;;;;;;5050862;28;20033;-77
2024/02/23 09:51:14;;;;;;;3.30;0.50;;;8.60;99.90;;;;;;5051708;28;20032;-77
2024/02/23 09:53:41;;;;;;;5.18;0.70;;;8.60;99.90;;;;;;5050876;28;20098;-77
2024/02/23 09:56:07;;;;;;;6.45;0.57;;;8.60;99.90;;;;;;5051383;28;20055;-77
2024/02/23 09:58:35;;;;;;;2.10;0.40;;;8.60;99.90;;;;;;5051885;28;20607;-76
2024/02/23 10:01:02;;;;;;;5.07;0.73;;;8.70;99.90;;;;;;5051227;28;20025;-77
2024/02/23 10:03:30;;;;;;;3.33;1.00;;;8.60;99.90;;;;;;5051161;28;20025;-77
2024/02/23 10:06:01;;;;;;;7.68;0.80;;;8.60;99.90;;;;;;5050543;28;20048;-77
2024/02/23 10:08:27;;;;;;;4.93;1.00;;;8.60;99.90;;;;;;5051557;28;20044;-77
2024/02/23 10:10:54;;;;;;;2.22;0.50;;;8.60;99.90;;;;;;5050708;28;20025;-77
2024/02/23 10:13:21;;;;;;;7.40;0.90;;;8.60;99.90;;;;;;5051254;28;20029;-77
2024/02/23 10:15:50;;;;;;;2.70;0.40;;;8.60;99.90;;;;;;5054474;28;20040;-77
2024/02/23 10:18:16;;;;;;;2.25;0.50;;;8.70;99.90;;;;;;5054806;28;20037;-77
2024/02/23 10:20:42;;;;;;;1.10;0.40;;;8.80;99.90;;;;;;5054602;28;20484;-77
2024/02/23 10:23:08;;;;;;;4.47;0.50;;;8.80;99.90;;;;;;5055008;28;20115;-77
2024/02/23 10:25:35;;;;;;;1.95;0.57;;;8.80;99.90;;;;;;5055620;28;20029;-76
2024/02/23 10:28:05;;;;;;;2.38;0.60;;;8.80;99.90;;;;;;5055274;28;20056;-77
2024/02/23 10:30:31;;;;;;;2.72;0.60;;;8.80;99.90;;;;;;5054773;28;20033;-77
2024/02/23 10:32:57;;;;;;;2.80;0.50;;;8.90;99.90;;;;;;5055513;28;20103;-77
2024/02/23 10:35:24;;;;;;;6.65;0.82;;;9.00;99.90;;;;;;5056092;28;20025;-77
2024/02/23 10:37:52;;;;;;;5.07;0.50;;;9.00;99.90;;;;;;5055338;28;20087;-77
2024/02/23 10:40:18;;;;;;;3.90;0.47;;;9.10;99.90;;;;;;5055949;28;20059;-77
2024/02/23 10:42:51;;;;;;;4.93;0.50;;;9.20;99.90;;;;;;5054147;28;20029;-77
2024/02/23 10:45:17;;;;;;;5.55;0.73;;;9.20;99.90;;;;;;5055720;28;20137;-77
2024/02/23 10:47:44;;;;;;;2.47;0.50;;;9.30;99.90;;;;;;5055284;28;20470;-77
2024/02/23 10:50:11;;;;;;;6.43;0.60;;;9.30;99.90;;;;;;5054472;28;20032;-77
2024/02/23 10:52:39;;;;;;;5.20;0.50;;;9.40;99.90;;;;;;5053845;28;20073;-77
2024/02/23 10:55:08;;;;;;;4.20;0.80;;;9.60;99.90;;;;;;5054512;28;20466;-77
2024/02/23 10:57:35;;;;;;;3.30;0.60;;;9.60;99.90;;;;;;5054514;28;20029;-77
2024/02/23 11:00:05;;;;;;;2.13;0.30;;;9.60;99.90;;;;;;5055597;28;20108;-77
2024/02/23 11:02:33;;;;;;;3.42;0.70;;;9.60;99.90;;;;;;5054465;28;20044;-78
2024/02/23 11:04:59;;;;;;;2.92;0.50;;;9.60;99.90;;;;;;5053835;28;20021;-77
2024/02/23 11:07:28;;;;;;;4.03;0.93;;;9.60;99.90;;;;;;5055420;28;20032;-77
2024/02/23 11:09:58;;;;;;;3.63;0.57;;;9.60;99.90;;;;;;5053801;28;20083;-77
2024/02/23 11:12:30;;;;;;;4.47;0.50;;;9.60;99.90;;;;;;5055917;28;20551;-77
2024/02/23 11:14:59;;;;;;;;;;;9.60;99.90;;;;;;5055315;28;20271;-77
2024/02/23 11:17:28;;;;;;;2.63;0.68;;;9.60;99.90;;;;;;5054224;28;20309;-77
2024/02/23 11:19:55;;;;;;;1.25;0.50;;;9.60;99.90;;;;;;5054547;28;20078;-77
2024/02/23 11:22:30;;;;;;;3.55;0.50;;;9.60;99.90;;;;;;5054169;28;20025;-77
2024/02/23 11:25:10;;;;;;;2.05;0.60;;;9.60;99.90;;;;;;5053112;28;20067;-77
2024/02/23 11:27:37;;;;;;;2.15;0.50;;;9.50;99.90;;;;;;5053946;28;20029;-77
2024/02/23 11:30:08;;;;;;;2.25;0.50;;;9.50;99.90;;;;;;5053857;28;20025;-77
2024/02/23 11:32:46;;;;;;;1.80;0.50;;;9.50;99.90;;;;;;5053784;28;20029;-77
2024/02/23 11:35:13;;;;;;;0.80;0.50;;;9.60;99.90;;;;;;5055196;28;20032;-77
2024/02/23 11:38:02;;;;;;;4.90;0.50;;;9.70;99.90;;;;;;5053277;28;20033;-77
2024/02/23 11:40:29;;;;;;;4.03;0.60;;;9.90;99.90;;;;;;5055019;28;20478;-77
2024/02/23 11:42:55;;;;;;;4.30;0.70;;;10.10;99.90;;;;;;5052718;28;20386;-77
2024/02/23 11:45:22;;;;;;;3.47;0.77;;;10.20;99.90;;;;;;5054933;28;20474;-77
2024/02/23 11:47:47;;;;;;;4.72;0.55;;;10.20;99.80;;;;;;5053111;28;20033;-77
2024/02/23 11:50:14;;;;;;;3.67;0.50;;;10.30;99.90;;;;;;5053401;28;20036;-77
2024/02/23 11:52:40;;;;;;;4.05;0.63;;;10.30;99.50;;;;;;5053101;28;20029;-77
2024/02/23 11:55:10;;;;;;;2.10;0.40;;;10.20;99.90;;;;;;5053441;28;20484;-77
2024/02/23 11:57:36;;;;;;;3.58;0.45;;;10.10;99.70;;;;;;5054323;28;20029;-75
2024/02/23 12:00:03;;;;;;;2.40;0.57;;;10.20;99.90;;;;;;5052588;28;20036;-74
2024/02/23 12:02:28;;;;;;;3.47;0.57;;;10.20;99.90;;;;;;5053204;28;20032;-74
2024/02/23 12:04:54;;;;;;;3.05;0.50;;;10.10;99.60;;;;;;5053360;28;20082;-74
2024/02/23 12:07:21;;;;;;;2.90;0.50;;;10.00;99.50;;;;;;5053016;28;20025;-74
2024/02/23 12:09:47;;;;;;;1.02;0.50;;;10.00;99.90;;;;;;5052444;28;20473;-74
2024/02/23 12:12:13;;;;;;;2.22;0.50;;;10.10;99.90;;;;;;5053119;28;20078;-74
2024/02/23 12:14:40;;;;;;;4.38;0.80;;;10.10;99.40;;;;;;5052811;28;20040;-74
2024/02/23 12:17:08;;;;;;;4.05;0.77;;;10.20;99.50;;;;;;5054383;28;20024;-74
2024/02/23 12:19:41;;;;;;;1.90;0.52;;;10.20;99.50;;;;;;5052661;28;20067;-74
2024/02/23 12:22:06;;;;;;;2.72;0.68;;;10.30;99.20;;;;;;5052815;28;20083;-74
2024/02/23 12:24:32;;;;;;;1.85;0.70;;;10.30;99.20;;;;;;5052667;28;20033;-75
2024/02/23 12:26:58;;;;;;;1.92;0.52;;;10.50;98.50;;;;;;5052172;28;20029;-74
2024/02/23 12:29:24;;;;;;;3.53;0.70;;;10.70;98.90;;;;;;5052435;28;20532;-74
2024/02/23 12:31:50;;;;;;;5.63;0.57;;;10.80;98.90;;;;;;5051826;28;20036;-74
2024/02/23 12:34:16;;;;;;;3.30;0.60;;;10.90;98.60;;;;;;5053669;28;20025;-74
2024/02/23 12:36:45;;;;;;;3.70;0.70;;;11.20;98.40;;;;;;5051416;28;20086;-73
2024/02/23 12:39:11;;;;;;;3.58;0.50;;;11.50;98.10;;;;;;5051709;28;20037;-74
2024/02/23 12:41:37;;;;;;;5.18;0.50;;;11.40;97.00;;;;;;5052235;28;20098;-74
2024/02/23 12:44:02;;;;;;;1.35;0.40;;;11.40;97.00;;;;;;5051455;28;20040;-74
2024/02/23 12:46:28;;;;;;;4.25;0.60;;;11.90;96.60;;;;;;5053585;28;20029;-75
2024/02/23 12:48:53;;;;;;;2.83;0.68;;;12.10;96.40;;;;;;5052872;28;20386;-74
2024/02/23 12:51:19;;;;;;;3.47;0.35;;;12.00;96.60;;;;;;5052171;28;20032;-74